Thunder radar more information blitzortung!


Radar de pluja more information rain snow radar


Visita la nostra xarxa de llocs de meteo:

Template documentation
and downloads

And another site



No particular awareness of the weather is required.    There are no Weather-warnings

Pagina Historial Weather Underground text

Diari Resum Novembre 5, 2017 Unitats:  Mètric    Imperial   Tant
« Previous Dia
SegĂźent Dia »
Diari Setmana Mensual Anual Personalitzada
  Maxima: Minima: Media:
Temperatura: -17.8 °C -13.7 °C -10.2 °C
Punt de rosada: -17.8 °C -17.5 °C -13.7 °C
Humitat: Humidity % 48 % 68 %
Wind Speed: 0 km/h 0 km/h 10.8 km/h
RĂ fegues de vent: 0 km/h - -
Vent:- - WSW
Pression baro: 0 hPa 34164.7 hPa -
Precipitacions: 0 mm    
Historical Graphs
 
 
Dades de taula per Novembre 5, 2017
Temps Temperatura Punt de rosada Pression baro Vent Wind Speed RĂ fegues de vent Humitat Rainfall Rate (Hourly)
-17.8 °C -17.8 °C 0 hPa Calm     Humidity % 0 mm
00:00 -10.4 °C -11.1 °C 34198.6 hPa Calm     92 % 0 mm
00:05 -10.4 °C -11.2 °C 34198.6 hPa SW 4.2 km/h 4.2 km/h 92 % 0 mm
00:10 -10.4 °C -11.2 °C 34198.6 hPa SW 6 km/h 6 km/h 91 % 0 mm
00:15 -10.5 °C -11.3 °C 34198.6 hPa SW 6 km/h 6 km/h 91 % 0 mm
00:20 -10.5 °C -11.3 °C 34198.6 hPa WSW 6.3 km/h 6.3 km/h 91 % 0 mm
00:25 -10.5 °C -11.3 °C 34222.3 hPa SW 6.3 km/h 6.3 km/h 91 % 0 mm
00:30 -10.6 °C -11.3 °C 34222.3 hPa WSW 6 km/h 6.3 km/h 91 % 0 mm
00:35 -10.6 °C -11.3 °C 34222.3 hPa WSW 3.7 km/h 3.7 km/h 91 % 0 mm
00:40 -10.6 °C -11.3 °C 34164.7 hPa WSW 4.2 km/h 4.2 km/h 91 % 0 mm
00:46 -10.6 °C -11.3 °C 34164.7 hPa WSW 6 km/h 6 km/h 91 % 0 mm
00:51 -10.6 °C -11.3 °C 34164.7 hPa West 6 km/h 6 km/h 91 % 0 mm
00:56 -10.6 °C -11.3 °C 34198.6 hPa WSW 6 km/h   91 % 0 mm
01:01 -10.6 °C -11.4 °C 34198.6 hPa Calm     91 % 0 mm
01:06 -10.6 °C -11.3 °C 34198.6 hPa Calm     92 % 0 mm
01:11 -10.7 °C -11.3 °C 34198.6 hPa Calm     92 % 0 mm
01:16 -10.7 °C -11.3 °C 34198.6 hPa Calm     92 % 0 mm
01:21 -10.7 °C -11.3 °C 34198.6 hPa WSW 6 km/h 6 km/h 92 % 0 mm
01:26 -10.7 °C -11.3 °C 34198.6 hPa WSW 3.1 km/h   92 % 0 mm
01:31 -10.7 °C -11.5 °C 34198.6 hPa WSW 6 km/h 6 km/h 91 % 0 mm
01:36 -10.7 °C -11.5 °C 34198.6 hPa WSW 6 km/h 6 km/h 91 % 0 mm
01:41 -10.7 °C -11.5 °C 34198.6 hPa WSW 6 km/h 6 km/h 91 % 0 mm
01:51 -10.7 °C -11.4 °C 34198.6 hPa West 6 km/h 6 km/h 91 % 0 mm
01:56 -10.7 °C -11.4 °C 34222.3 hPa WSW 6 km/h 6 km/h 91 % 0 mm
02:01 -10.7 °C -11.4 °C 34222.3 hPa West 6 km/h 6 km/h 91 % 0 mm
02:06 -10.7 °C -11.4 °C 34222.3 hPa Calm     91 % 0 mm
02:11 -10.7 °C -11.4 °C 34222.3 hPa WSW 6 km/h   92 % 0 mm
02:16 -10.6 °C -11.4 °C 34222.3 hPa WSW 11.9 km/h 11.9 km/h 91 % 0 mm
02:21 -10.6 °C -11.4 °C 34222.3 hPa West 9 km/h 9 km/h 90 % 0 mm
02:26 -10.6 °C -11.4 °C 34222.3 hPa West 9 km/h 9 km/h 90 % 0 mm
02:31 -10.5 °C -11.4 °C 34222.3 hPa WSW 9 km/h 9 km/h 90 % 0 mm
02:36 -10.6 °C -11.4 °C 34198.6 hPa WSW 11.9 km/h 11.9 km/h 90 % 0 mm
02:41 -10.6 °C -11.5 °C 34198.6 hPa West 6 km/h 6 km/h 90 % 0 mm
02:46 -10.6 °C -11.3 °C 34198.6 hPa WSW 6 km/h 6 km/h 91 % 0 mm
02:51 -10.6 °C -11.4 °C 34222.3 hPa WSW 6 km/h 6 km/h 91 % 0 mm
02:56 -10.6 °C -11.4 °C 34222.3 hPa SW 6 km/h 6 km/h 91 % 0 mm
03:01 -10.7 °C -11.4 °C 34222.3 hPa SSW 6 km/h 6 km/h 91 % 0 mm
03:06 -10.7 °C -11.4 °C 34222.3 hPa West 6 km/h 6 km/h 91 % 0 mm
03:11 -10.7 °C -11.4 °C 34222.3 hPa West 6 km/h 6 km/h 91 % 0 mm
03:16 -10.6 °C -11.5 °C 34222.3 hPa West 11.9 km/h 11.9 km/h 90 % 0 mm
03:21 -10.6 °C -11.5 °C 34222.3 hPa SW 6.3 km/h 6.3 km/h 90 % 0 mm
03:26 -10.6 °C -11.5 °C 34222.3 hPa SW 9 km/h 9 km/h 90 % 0 mm
03:31 -10.6 °C -11.4 °C 34222.3 hPa WSW 6 km/h 6 km/h 90 % 0 mm
03:36 -10.6 °C -11.5 °C 34222.3 hPa West 6 km/h 6 km/h 90 % 0 mm
03:41 -10.6 °C -11.5 °C 34222.3 hPa WSW 6.3 km/h 6.3 km/h 90 % 0 mm
03:46 -10.6 °C -11.5 °C 34222.3 hPa Calm     90 % 0 mm
03:51 -10.6 °C -11.5 °C 34222.3 hPa WSW 3.1 km/h   90 % 0 mm
03:56 -10.6 °C -11.5 °C 34222.3 hPa SW 4.2 km/h   90 % 0 mm
04:01 -10.6 °C -11.6 °C 34222.3 hPa SSW 3.1 km/h   89 % 0 mm
04:06 -10.6 °C -11.6 °C 34222.3 hPa SW 3.1 km/h   89 % 0 mm
04:12 -10.6 °C -11.6 °C 34222.3 hPa WNW 3.1 km/h   89 % 0 mm
04:19 -10.6 °C -11.6 °C 34222.3 hPa Calm     89 % 0 mm
04:20 -10.6 °C -11.6 °C 34222.3 hPa Calm     89 % 0 mm
04:21 -10.6 °C -11.6 °C 34256.2 hPa Calm     89 % 0 mm
04:24 -10.6 °C -11.6 °C 34256.2 hPa Calm     89 % 0 mm
04:26 -10.6 °C -11.6 °C 34256.2 hPa Calm     89 % 0 mm
04:30 -10.6 °C -11.7 °C 34256.2 hPa WSW 2.3 km/h   88 % 0 mm
04:31 -10.6 °C -11.7 °C 34256.2 hPa WSW 3.1 km/h   88 % 0 mm
04:36 -10.6 °C -11.7 °C 34256.2 hPa WNW 3.1 km/h 3.1 km/h 88 % 0 mm
04:41 -10.6 °C -11.7 °C 34256.2 hPa SW 3.1 km/h   88 % 0 mm
04:46 -10.6 °C -11.7 °C 34256.2 hPa WNW 6 km/h 6 km/h 88 % 0 mm
04:51 -10.7 °C -11.8 °C 34256.2 hPa WNW 3.1 km/h   88 % 0 mm
04:56 -10.7 °C -11.8 °C 34256.2 hPa Calm     87 % 0 mm
05:01 -10.7 °C -11.8 °C 34256.2 hPa WNW 3.1 km/h   87 % 0 mm
05:06 -10.7 °C -11.9 °C 34256.2 hPa Calm     87 % 0 mm
05:11 -10.7 °C -11.9 °C 34256.2 hPa Calm     87 % 0 mm
05:16 -10.7 °C -11.9 °C 34256.2 hPa WNW 3.7 km/h 3.7 km/h 87 % 0 mm
05:21 -10.7 °C -12 °C 34256.2 hPa NW 4.2 km/h   86 % 0 mm
05:26 -10.7 °C -12 °C 34256.2 hPa Calm     86 % 0 mm
05:31 -10.8 °C -11.9 °C 34256.2 hPa Calm     87 % 0 mm
05:36 -10.8 °C -11.9 °C 34256.2 hPa Calm     87 % 0 mm
05:41 -10.7 °C -11.9 °C 34256.2 hPa Calm     87 % 0 mm
05:46 -10.7 °C -12 °C 34256.2 hPa ENE 6 km/h 6 km/h 86 % 0 mm
05:51 -10.8 °C -12.1 °C 34256.2 hPa Calm     86 % 0 mm
05:56 -10.8 °C -12 °C 34256.2 hPa NE 11.9 km/h 11.9 km/h 87 % 0 mm
06:01 -10.8 °C -11.9 °C 34256.2 hPa NNE 6 km/h   87 % 0 mm
06:06 -10.8 °C -11.9 °C 34293.4 hPa North 11.9 km/h 11.9 km/h 87 % 0 mm
06:11 -10.8 °C -11.9 °C 34293.4 hPa North 3.1 km/h   87 % 0 mm
06:16 -10.8 °C -12 °C 34293.4 hPa Calm     87 % 0 mm
06:21 -10.9 °C -12.1 °C 34293.4 hPa Calm     87 % 0 mm
06:26 -10.9 °C -12.1 °C 34293.4 hPa NW 3.1 km/h   87 % 0 mm
06:31 -10.9 °C -12.1 °C 34293.4 hPa NW 6 km/h 6 km/h 87 % 0 mm
06:36 -10.9 °C -12.1 °C 34327.3 hPa Calm     87 % 0 mm
06:41 -10.9 °C -12.1 °C 34327.3 hPa West 6 km/h 6 km/h 87 % 0 mm
06:47 -10.9 °C -12.1 °C 34327.3 hPa WSW 8 km/h 8 km/h 87 % 0 mm
06:52 -11 °C -12.2 °C 34327.3 hPa West 11.9 km/h 11.9 km/h 87 % 0 mm
06:57 -11 °C -12.2 °C 34327.3 hPa Calm     87 % 0 mm
07:02 -11.1 °C -12.2 °C 34327.3 hPa Calm     87 % 0 mm
07:07 -11.1 °C -12.2 °C 34327.3 hPa NNE 3.1 km/h   87 % 0 mm
07:12 -11 °C -12.2 °C 34327.3 hPa West 11.1 km/h 11.1 km/h 87 % 0 mm
07:17 -10.9 °C -12.2 °C 34327.3 hPa WSW 6 km/h 6 km/h 86 % 0 mm
07:22 -10.9 °C -12.3 °C 34327.3 hPa SW 11.9 km/h   85 % 0 mm
07:27 -10.9 °C -12.3 °C 34327.3 hPa NNW 9.3 km/h 9.3 km/h 85 % 0 mm
07:32 -10.9 °C -12.3 °C 34327.3 hPa NE 3.1 km/h   85 % 0 mm
07:37 -10.9 °C -12.3 °C 34293.4 hPa SW 6 km/h 6 km/h 85 % 0 mm
07:42 -10.9 °C -12.3 °C 34293.4 hPa ENE 9 km/h 9 km/h 85 % 0 mm
07:47 -10.9 °C -12.3 °C 34293.4 hPa WNW 7.6 km/h 7.6 km/h 85 % 0 mm
07:52 -10.9 °C -12.3 °C 34327.3 hPa South 3.7 km/h   85 % 0 mm
07:57 -11 °C -12.3 °C 34327.3 hPa WNW 6 km/h 6 km/h 85 % 0 mm
08:02 -11 °C -12.3 °C 34327.3 hPa NW 3.1 km/h   85 % 0 mm
08:07 -11.1 °C -12.4 °C 34327.3 hPa NNW 6 km/h 6 km/h 85 % 0 mm
08:12 -11 °C -12.3 °C 34327.3 hPa West 9 km/h 9 km/h 85 % 0 mm
08:17 -11 °C -12.4 °C 34327.3 hPa SSW 9 km/h 9 km/h 84 % 0 mm
08:22 -11 °C -12.4 °C 34361.1 hPa West 9 km/h 9 km/h 84 % 0 mm
08:27 -11 °C -12.4 °C 34361.1 hPa WNW 9 km/h 9 km/h 84 % 0 mm
08:32 -11 °C -12.4 °C 34361.1 hPa West 7.6 km/h 7.6 km/h 84 % 0 mm
08:37 -10.9 °C -12.4 °C 34361.1 hPa WSW 9 km/h 9 km/h 84 % 0 mm
08:42 -10.9 °C -12.5 °C 34361.1 hPa Calm     83 % 0 mm
08:47 -10.9 °C -12.5 °C 34361.1 hPa NNE 5.1 km/h 5.1 km/h 83 % 0 mm
08:52 -10.8 °C -12.4 °C 34361.1 hPa ENE 4.2 km/h 4.2 km/h 83 % 0 mm
08:57 -10.7 °C -12.1 °C 34361.1 hPa North 6 km/h   84 % 0 mm
09:02 -10.6 °C -12.1 °C 34361.1 hPa WSW 3.1 km/h 3.1 km/h 84 % 0 mm
09:07 -10.3 °C -11.8 °C 34361.1 hPa NW 6 km/h 6 km/h 84 % 0 mm
09:12 -10 °C -11.5 °C 34361.1 hPa North 4.2 km/h 4.2 km/h 84 % 0 mm
09:17 -9.8 °C -11.4 °C 34361.1 hPa SSW 3.1 km/h   83 % 0 mm
09:22 -9.9 °C -11.5 °C 34361.1 hPa West 7.6 km/h 7.6 km/h 83 % 0 mm
09:27 -9.7 °C -11.4 °C 34361.1 hPa WSW 8 km/h   82 % 0 mm
09:32 -9.8 °C -11.5 °C 34361.1 hPa ENE 17.9 km/h 17.9 km/h 82 % 0 mm
09:37 -9.7 °C -11.4 °C 34395 hPa WSW 9 km/h 9 km/h 81 % 0 mm
09:42 -9.7 °C -11.6 °C 34395 hPa SW 11.9 km/h 11.9 km/h 80 % 0 mm
09:47 -9.7 °C -11.6 °C 34395 hPa West 9 km/h 9 km/h 80 % 0 mm
09:52 -9.7 °C -11.7 °C 34395 hPa WSW 15 km/h 15 km/h 79 % 0 mm
09:57 -9.7 °C -11.8 °C 34395 hPa West 15 km/h 15 km/h 78 % 0 mm
10:02 -9.4 °C -11.6 °C 34395 hPa WSW 10.3 km/h 10.3 km/h 78 % 0 mm
10:07 -9.6 °C -11.8 °C 34395 hPa West 20.9 km/h 20.9 km/h 77 % 0 mm
10:12 -9.4 °C -11.8 °C 34395 hPa West 11.9 km/h 11.9 km/h 76 % 0 mm
10:17 -9.3 °C -11.7 °C 34395 hPa WSW 11.9 km/h 11.9 km/h 76 % 0 mm
10:22 -9.1 °C -11.4 °C 34361.1 hPa West 9.8 km/h 9.8 km/h 76 % 0 mm
10:27 -9.1 °C -11.4 °C 34361.1 hPa WSW 20.9 km/h 20.9 km/h 76 % 0 mm
10:32 -8.8 °C -11.3 °C 34361.1 hPa SSE 6.3 km/h 6.3 km/h 75 % 0 mm
10:37 -8.8 °C -11.4 °C 34361.1 hPa NW 11.9 km/h 11.9 km/h 74 % 0 mm
10:42 -8.9 °C -11.4 °C 34361.1 hPa West 20.9 km/h 20.9 km/h 74 % 0 mm
10:47 -8.8 °C -11.6 °C 34361.1 hPa SW 17.9 km/h 17.9 km/h 72 % 0 mm
10:52 -8.9 °C -11.7 °C 34361.1 hPa WSW 15 km/h 15 km/h 72 % 0 mm
10:57 -8.9 °C -11.9 °C 34361.1 hPa West 15 km/h 15 km/h 70 % 0 mm
11:02 -8.8 °C -11.8 °C 34361.1 hPa WSW 15 km/h 15 km/h 71 % 0 mm
11:07 -8.8 °C -11.9 °C 34361.1 hPa WSW 15 km/h 15 km/h 70 % 0 mm
11:12 -8.8 °C -11.9 °C 34361.1 hPa SW 9 km/h 9 km/h 69 % 0 mm
11:17 -8.6 °C -11.7 °C 34361.1 hPa WSW 11.9 km/h 11.9 km/h 69 % 0 mm
11:22 -8.5 °C -11.6 °C 34361.1 hPa SW 20.9 km/h 20.9 km/h 70 % 0 mm
11:27 -8.5 °C -11.8 °C 34361.1 hPa WSW 15 km/h 15 km/h 68 % 0 mm
11:32 -8.3 °C -11.8 °C 34361.1 hPa SW 11.1 km/h 11.1 km/h 67 % 0 mm
11:37 -8.3 °C -11.8 °C 34361.1 hPa NNE 6 km/h 6 km/h 66 % 0 mm
11:42 -8.1 °C -11.7 °C 34361.1 hPa NNE 11.9 km/h 11.9 km/h 66 % 0 mm
11:47 -8.2 °C -11.8 °C 34361.1 hPa West 9 km/h 9 km/h 65 % 0 mm
11:52 -8.1 °C -11.9 °C 34361.1 hPa NNE 9 km/h 9.3 km/h 64 % 0 mm
11:57 -8.1 °C -12 °C 34361.1 hPa SSW 15 km/h 15 km/h 63 % 0 mm
12:02 -8 °C -12 °C 34361.1 hPa NNW 9 km/h 9 km/h 63 % 0 mm
12:07 -7.8 °C -11.8 °C 34361.1 hPa SE 14 km/h 14 km/h 63 % 0 mm
12:12 -7.9 °C -12 °C 34361.1 hPa WSW 20.9 km/h 20.9 km/h 62 % 0 mm
12:17 -8.1 °C -12.4 °C 34361.1 hPa West 29.8 km/h 29.8 km/h 60 % 0 mm
12:22 -8 °C -12.4 °C 34361.1 hPa SW 20.3 km/h 20.3 km/h 60 % 0 mm
12:27 -7.8 °C -12.3 °C 34361.1 hPa NNE 6.8 km/h 8 km/h 59 % 0 mm
12:32 -7.9 °C -12.4 °C 34361.1 hPa West 20.9 km/h 20.9 km/h 59 % 0 mm
12:37 -7.9 °C -12.4 °C 34361.1 hPa WSW 15 km/h 17.4 km/h 59 % 0 mm
12:42 -8.1 °C -12.8 °C 34361.1 hPa SW 20.9 km/h 20.9 km/h 57 % 0 mm
12:47 -8 °C -12.8 °C 34361.1 hPa NW 20.9 km/h 20.9 km/h 57 % 0 mm
12:52 -7.9 °C -12.6 °C 34327.3 hPa West 15 km/h 15 km/h 58 % 0 mm
12:57 -7.8 °C -12.6 °C 34327.3 hPa West 20.9 km/h 20.9 km/h 57 % 0 mm
13:02 -7.8 °C -12.8 °C 34327.3 hPa WSW 17.9 km/h 17.9 km/h 56 % 0 mm
13:07 -7.8 °C -12.7 °C 34327.3 hPa NNW 16.6 km/h 19.2 km/h 56 % 0 mm
13:12 -7.8 °C -12.7 °C 34327.3 hPa SSE 29.8 km/h 29.8 km/h 56 % 0 mm
13:17 -7.8 °C -12.7 °C 34327.3 hPa WSW 26.9 km/h 26.9 km/h 56 % 0 mm
13:22 -7.8 °C -12.9 °C 34327.3 hPa West 17.9 km/h 17.9 km/h 55 % 0 mm
13:28 -7.7 °C -12.8 °C 34327.3 hPa NNW 20.9 km/h 20.9 km/h 55 % 0 mm
13:33 -7.8 °C -13.1 °C 34327.3 hPa SSW 29.8 km/h 29.8 km/h 54 % 0 mm
13:38 -7.8 °C -13.1 °C 34361.1 hPa SSW 23.8 km/h 23.8 km/h 54 % 0 mm
13:43 -7.9 °C -13.1 °C 34361.1 hPa SW 32.8 km/h 32.8 km/h 54 % 0 mm
13:48 -7.8 °C -13.1 °C 34361.1 hPa West 15 km/h 15 km/h 54 % 0 mm
13:53 -7.7 °C -12.9 °C 34361.1 hPa West 20.9 km/h 20.9 km/h 54 % 0 mm
13:58 -7.6 °C -12.9 °C 34361.1 hPa WNW 15 km/h 15 km/h 54 % 0 mm
14:03 -7.6 °C -12.9 °C 34361.1 hPa WNW 20.9 km/h 20.9 km/h 54 % 0 mm
14:08 -7.7 °C -12.9 °C 34361.1 hPa South 20.9 km/h 20.9 km/h 54 % 0 mm
14:13 -7.8 °C -13.2 °C 34361.1 hPa WSW 20.9 km/h 20.9 km/h 53 % 0 mm
14:18 -7.6 °C -12.9 °C 34361.1 hPa WSW 11.9 km/h 11.9 km/h 54 % 0 mm
14:25 -7.4 °C -12.7 °C 34327.3 hPa WSW 15 km/h 15 km/h 54 % 0 mm
14:30 -7.4 °C -12.7 °C 34327.3 hPa WNW 15 km/h 15 km/h 54 % 0 mm
14:35 -7.4 °C -12.9 °C 34327.3 hPa West 15.3 km/h 15.3 km/h 53 % 0 mm
14:40 -7.6 °C -13.1 °C 34361.1 hPa West 26.9 km/h 26.9 km/h 52 % 0 mm
14:45 -7.6 °C -13.1 °C 34361.1 hPa SW 15 km/h 15 km/h 52 % 0 mm
14:50 -7.4 °C -12.8 °C 34361.1 hPa West 11.9 km/h 11.9 km/h 53 % 0 mm
14:55 -7.4 °C -13 °C 34361.1 hPa West 20.9 km/h 20.9 km/h 52 % 0 mm
15:00 -7.4 °C -13.2 °C 34361.1 hPa WSW 20.9 km/h 20.9 km/h 51 % 0 mm
15:05 -7.4 °C -13.2 °C 34361.1 hPa WSW 17.9 km/h 17.9 km/h 51 % 0 mm
15:10 -7.4 °C -13.2 °C 34361.1 hPa West 15 km/h 15 km/h 51 % 0 mm
15:15 -7.3 °C -13.1 °C 34361.1 hPa WSW 17.9 km/h 17.9 km/h 51 % 0 mm
15:20 -7.3 °C -13 °C 34361.1 hPa West 15 km/h 15 km/h 51 % 0 mm
15:25 -7.2 °C -13.2 °C 34361.1 hPa SW 22 km/h 22 km/h 50 % 0 mm
15:30 -7.2 °C -13.1 °C 34361.1 hPa NW 11.9 km/h 11.9 km/h 50 % 0 mm
15:35 -7.2 °C -13.2 °C 34361.1 hPa WSW 11.9 km/h 11.9 km/h 50 % 0 mm
15:40 -7.2 °C -13.1 °C 34327.3 hPa WSW 9 km/h 9 km/h 50 % 0 mm
15:45 -7.2 °C -13.3 °C 34327.3 hPa WSW 15 km/h 15.3 km/h 49 % 0 mm
15:50 -7.3 °C -13.2 °C 34327.3 hPa NW 11.9 km/h 11.9 km/h 50 % 0 mm
15:55 -7.3 °C -13.2 °C 34361.1 hPa WSW 15 km/h 15 km/h 50 % 0 mm
16:00 -7.4 °C -13.4 °C 34361.1 hPa SW 17.9 km/h 17.9 km/h 49 % 0 mm
16:05 -7.4 °C -13.3 °C 34361.1 hPa SW 19.6 km/h 19.6 km/h 50 % 0 mm
16:10 -7.5 °C -13.6 °C 34327.3 hPa WSW 20.9 km/h 20.9 km/h 49 % 0 mm
16:15 -7.6 °C -13.6 °C 34327.3 hPa WNW 11.9 km/h 11.9 km/h 49 % 0 mm
16:20 -7.6 °C -13.6 °C 34327.3 hPa WSW 9 km/h 11.1 km/h 49 % 0 mm
16:25 -7.6 °C -13.8 °C 34327.3 hPa West 26.9 km/h 26.9 km/h 48 % 0 mm
16:30 -7.6 °C -13.7 °C 34327.3 hPa West 17.9 km/h 17.9 km/h 49 % 0 mm
16:35 -7.7 °C -13.9 °C 34327.3 hPa WSW 11.9 km/h 11.9 km/h 48 % 0 mm
16:40 -7.7 °C -13.9 °C 34327.3 hPa WSW 15 km/h 15 km/h 48 % 0 mm
16:41 -7.7 °C -13.9 °C 34327.3 hPa WSW 11.9 km/h 11.9 km/h 48 % 0 mm
16:46 -7.8 °C -14 °C 34327.3 hPa West 20.9 km/h 20.9 km/h 48 % 0 mm
16:51 -7.9 °C -14.1 °C 34327.3 hPa WSW 11.9 km/h 11.9 km/h 48 % 0 mm
16:56 -8 °C -14.2 °C 34327.3 hPa SW 11.9 km/h 11.9 km/h 48 % 0 mm
17:01 -8.1 °C -14.3 °C 34327.3 hPa WSW 15 km/h 15 km/h 48 % 0 mm
17:06 -8.2 °C -14.3 °C 34361.1 hPa WSW 11.9 km/h 11.9 km/h 48 % 0 mm
17:07 -8.2 °C -14.4 °C 34361.1 hPa SSW 11.9 km/h 11.9 km/h 48 % 0 mm
17:12 -8.3 °C -14.5 °C 34361.1 hPa SW 15 km/h 15 km/h 48 % 0 mm
17:17 -8.5 °C -14.5 °C 34361.1 hPa WNW 15 km/h 15.3 km/h 49 % 0 mm
17:22 -8.6 °C -14.6 °C 34361.1 hPa West 9.8 km/h 9.8 km/h 49 % 0 mm
17:27 -8.7 °C -14.6 °C 34361.1 hPa SW 9 km/h 9 km/h 49 % 0 mm
17:32 -8.8 °C -14.8 °C 34361.1 hPa West 9 km/h 9 km/h 49 % 0 mm
17:37 -8.9 °C -14.8 °C 34361.1 hPa WNW 6 km/h 6 km/h 49 % 0 mm
17:42 -9 °C -14.8 °C 34361.1 hPa West 11.9 km/h 11.9 km/h 50 % 0 mm
17:47 -9.1 °C -15 °C 34361.1 hPa WSW 15 km/h 15 km/h 49 % 0 mm
17:52 -9.1 °C -14.9 °C 34361.1 hPa SW 15.3 km/h 15.3 km/h 50 % 0 mm
17:57 -9.2 °C -14.9 °C 34361.1 hPa West 8.5 km/h 8.5 km/h 50 % 0 mm
18:02 -9.2 °C -14.9 °C 34361.1 hPa WNW 11.9 km/h 11.9 km/h 50 % 0 mm
18:07 -9.2 °C -14.9 °C 34361.1 hPa West 15 km/h 15 km/h 50 % 0 mm
18:10 -12.4 °C -16.8 °C 34428.8 hPa West 7.7 km/h 15.6 km/h 58 % 0 mm
18:12 -9.2 °C -15 °C 34361.1 hPa WNW 15 km/h 15 km/h 50 % 0 mm
18:17 -9.3 °C -15.1 °C 34361.1 hPa West 15 km/h 15 km/h 50 % 0 mm
18:20 -12.4 °C -16.6 °C 34428.8 hPa West 7.7 km/h 18.2 km/h 59 % 0 mm
18:23 -9.3 °C -15.1 °C 34395 hPa WNW 20.9 km/h 20.9 km/h 50 % 0 mm
18:28 -9.2 °C -15 °C 34395 hPa WSW 20.9 km/h 20.9 km/h 50 % 0 mm
18:30 -12.4 °C -16.7 °C 34462.7 hPa WSW 2.6 km/h 10.3 km/h 59 % 0 mm
18:33 -9.3 °C -15.1 °C 34395 hPa West 11.9 km/h 11.9 km/h 50 % 0 mm
18:38 -9.3 °C -15.1 °C 34361.1 hPa WSW 16.1 km/h 16.1 km/h 50 % 0 mm
18:40 -12.6 °C -16.7 °C 34428.8 hPa SW 2.6 km/h 10.3 km/h 60 % 0 mm
18:43 -9.3 °C -15.4 °C 34361.1 hPa West 32.8 km/h 32.8 km/h 48 % 0 mm
18:48 -9.3 °C -15.4 °C 34361.1 hPa West 18.3 km/h 22 km/h 48 % 0 mm
18:50 -12.7 °C -16.8 °C 34428.8 hPa SW 2.6 km/h 7.7 km/h 60 % 0 mm
18:53 -9.4 °C -15.5 °C 34395 hPa WSW 15 km/h 15 km/h 48 % 0 mm
18:58 -9.5 °C -15.6 °C 34395 hPa SW 26.9 km/h 26.9 km/h 48 % 0 mm
19:00 -12.7 °C -16.8 °C 34462.7 hPa WSW 7.7 km/h 15.6 km/h 60 % 0 mm
19:03 -9.6 °C -15.7 °C 34395 hPa West 19.6 km/h 19.6 km/h 48 % 0 mm
19:08 -9.7 °C -15.7 °C 34361.1 hPa West 20.9 km/h 20.9 km/h 48 % 0 mm
19:10 -12.7 °C -16.7 °C 34428.8 hPa WSW 7.7 km/h 15.6 km/h 61 % 0 mm
19:13 -9.8 °C -15.8 °C 34361.1 hPa WSW 23.8 km/h 23.8 km/h 48 % 0 mm
19:18 -9.8 °C -15.9 °C 34361.1 hPa WSW 17.9 km/h 17.9 km/h 48 % 0 mm
19:20 -12.7 °C -16.7 °C 34428.8 hPa WSW 5.1 km/h 7.7 km/h 61 % 0 mm
19:23 -9.9 °C -15.9 °C 34395 hPa West 20.9 km/h 20.9 km/h 48 % 0 mm
19:28 -9.9 °C -16 °C 34395 hPa WNW 33.6 km/h 33.6 km/h 48 % 0 mm
19:30 -12.8 °C -16.8 °C 34428.8 hPa WSW 5.1 km/h 7.7 km/h 61 % 0 mm
19:33 -10 °C -16 °C 34395 hPa WSW 27.2 km/h 27.2 km/h 48 % 0 mm
19:38 -10.1 °C -16.1 °C 34395 hPa WSW 15 km/h 15 km/h 48 % 0 mm
19:40 -12.9 °C -16.9 °C 34428.8 hPa WSW 5.1 km/h 7.7 km/h 61 % 0 mm
19:48 -10.2 °C -16.2 °C 34395 hPa West 9 km/h 9 km/h 48 % 0 mm
19:50 -13 °C -16.8 °C 34428.8 hPa WSW 2.6 km/h 5.1 km/h 62 % 0 mm
19:53 -10.3 °C -16.3 °C 34361.1 hPa West 15.3 km/h 15.3 km/h 48 % 0 mm
19:58 -10.4 °C -16.2 °C 34361.1 hPa SSW 15 km/h 15 km/h 49 % 0 mm
20:00 -13.1 °C -16.9 °C 34462.7 hPa WSW 5.1 km/h 10.3 km/h 62 % 0 mm
20:03 -10.4 °C -16.3 °C 34361.1 hPa West 20.9 km/h 20.9 km/h 49 % 0 mm
20:08 -10.5 °C -16.3 °C 34395 hPa West 15 km/h 15 km/h 49 % 0 mm
20:10 -13.2 °C -16.8 °C 34462.7 hPa WSW 2.6 km/h 5.1 km/h 63 % 0 mm
20:13 -10.6 °C -16.4 °C 34395 hPa West 15 km/h 15 km/h 49 % 0 mm
20:18 -10.6 °C -16.4 °C 34395 hPa WSW 26.9 km/h 26.9 km/h 49 % 0 mm
20:20 -13.2 °C -16.9 °C 34462.7 hPa Calm   2.6 km/h 63 % 0 mm
20:23 -10.6 °C -16.4 °C 34395 hPa West 17.9 km/h 17.9 km/h 49 % 0 mm
20:28 -10.7 °C -16.3 °C 34395 hPa WSW 15 km/h 15 km/h 50 % 0 mm
20:30 -13.3 °C -16.9 °C 34462.7 hPa SSW 2.6 km/h 5.1 km/h 64 % 0 mm
20:33 -10.8 °C -16.4 °C 34395 hPa WNW 11.9 km/h 11.9 km/h 50 % 0 mm
20:38 -10.8 °C -16.5 °C 34395 hPa NW 11.9 km/h 11.9 km/h 50 % 0 mm
20:40 -13.3 °C -16.9 °C 34462.7 hPa Calm   2.6 km/h 64 % 0 mm
20:43 -10.9 °C -16.5 °C 34395 hPa WNW 20.9 km/h 20.9 km/h 50 % 0 mm
20:48 -10.9 °C -16.6 °C 34395 hPa NNE 15 km/h 15 km/h 50 % 0 mm
20:53 -10.9 °C -16.6 °C 34428.8 hPa WNW 15 km/h 15 km/h 50 % 0 mm
20:58 -11 °C -16.5 °C 34428.8 hPa SE 9 km/h 9 km/h 51 % 0 mm
21:00 -13.5 °C -17.1 °C 34462.7 hPa Calm   7.7 km/h 64 % 0 mm
21:03 -11.1 °C -16.5 °C 34428.8 hPa WSW 20.9 km/h 20.9 km/h 51 % 0 mm
21:08 -11.1 °C -16.6 °C 34428.8 hPa WSW 9 km/h 9 km/h 51 % 0 mm
21:10 -13.6 °C -17.1 °C 34462.7 hPa Calm   5.1 km/h 64 % 0 mm
21:13 -11.2 °C -16.6 °C 34428.8 hPa SSW 11.9 km/h 11.9 km/h 51 % 0 mm
21:18 -11.2 °C -16.7 °C 34428.8 hPa West 9 km/h 9 km/h 51 % 0 mm
21:20 -13.5 °C -17.1 °C 34462.7 hPa WSW 2.6 km/h 7.7 km/h 64 % 0 mm
21:23 -11.2 °C -16.7 °C 34395 hPa West 17.9 km/h 17.9 km/h 51 % 0 mm
21:28 -11.3 °C -16.7 °C 34395 hPa NE 15 km/h 15 km/h 51 % 0 mm
21:30 -13.4 °C -17.1 °C 34462.7 hPa West 7.7 km/h 7.7 km/h 63 % 0 mm
21:33 -11.3 °C -16.6 °C 34395 hPa West 15 km/h 15 km/h 52 % 0 mm
21:38 -11.3 °C -16.6 °C 34395 hPa West 15 km/h 15 km/h 52 % 0 mm
21:40 -13.2 °C -17.1 °C 34428.8 hPa West 7.7 km/h 12.9 km/h 62 % 0 mm
21:43 -11.4 °C -16.7 °C 34395 hPa WSW 10.3 km/h 10.3 km/h 52 % 0 mm
21:48 -11.4 °C -16.7 °C 34395 hPa WSW 11.9 km/h 11.9 km/h 52 % 0 mm
21:50 -13.4 °C -17.2 °C 34428.8 hPa WSW 15.6 km/h 15.6 km/h 62 % 0 mm
21:53 -11.4 °C -16.7 °C 34428.8 hPa West 15 km/h 15 km/h 52 % 0 mm
21:58 -11.5 °C -16.8 °C 34428.8 hPa SW 11.9 km/h 11.9 km/h 52 % 0 mm
22:00 -13.2 °C -17.1 °C 34428.8 hPa WSW 12.9 km/h 12.9 km/h 62 % 0 mm
22:03 -11.5 °C -16.8 °C 34428.8 hPa SW 15 km/h 15 km/h 52 % 0 mm
22:08 -11.6 °C -16.7 °C 34428.8 hPa WNW 15 km/h 15 km/h 53 % 0 mm
22:10 -13.2 °C -17.2 °C 34428.8 hPa WSW 7.7 km/h 12.9 km/h 61 % 0 mm
22:13 -11.6 °C -16.7 °C 34428.8 hPa West 23.8 km/h 23.8 km/h 53 % 0 mm
22:18 -11.6 °C -16.7 °C 34428.8 hPa NNW 15 km/h 15 km/h 53 % 0 mm
22:20 -13.4 °C -17.3 °C 34428.8 hPa WSW 5.1 km/h 7.7 km/h 61 % 0 mm
22:23 -11.7 °C -16.8 °C 34462.7 hPa South 20.9 km/h 20.9 km/h 53 % 0 mm
22:28 -11.7 °C -16.8 °C 34462.7 hPa WSW 9 km/h 9 km/h 53 % 0 mm
22:30 -13.4 °C -17.2 °C 34395 hPa WSW 7.7 km/h 10.3 km/h 62 % 0 mm
22:33 -11.7 °C -16.8 °C 34462.7 hPa NNW 6.3 km/h   53 % 0 mm
22:38 -11.8 °C -16.8 °C 34462.7 hPa WSW 11.9 km/h 11.9 km/h 54 % 0 mm
22:40 -13.4 °C -17.2 °C 34428.8 hPa WSW 7.7 km/h 10.3 km/h 62 % 0 mm
22:43 -11.8 °C -16.8 °C 34462.7 hPa SW 6 km/h 6 km/h 54 % 0 mm
22:48 -11.8 °C -16.8 °C 34462.7 hPa South 15 km/h 15 km/h 54 % 0 mm
22:50 -13.5 °C -17.3 °C 34428.8 hPa WSW 7.7 km/h 10.3 km/h 62 % 0 mm
22:53 -11.8 °C -16.8 °C 34462.7 hPa WSW 12.7 km/h 12.7 km/h 54 % 0 mm
22:58 -11.9 °C -16.8 °C 34462.7 hPa WSW 11.9 km/h 11.9 km/h 54 % 0 mm
23:00 -13.6 °C -17.3 °C 34428.8 hPa WSW 5.1 km/h 10.3 km/h 62 % 0 mm
23:03 -11.9 °C -16.8 °C 34462.7 hPa NNE 11.9 km/h 11.9 km/h 54 % 0 mm
23:08 -11.9 °C -16.8 °C 34462.7 hPa SW 9 km/h 9 km/h 55 % 0 mm
23:10 -13.6 °C -17.4 °C 34428.8 hPa WSW 7.7 km/h 10.3 km/h 62 % 0 mm
23:13 -11.9 °C -16.8 °C 34462.7 hPa SW 9 km/h 9 km/h 55 % 0 mm
23:18 -12 °C -16.8 °C 34462.7 hPa West 20.9 km/h 20.9 km/h 55 % 0 mm
23:20 -13.6 °C -17.4 °C 34428.8 hPa WSW 12.9 km/h 12.9 km/h 62 % 0 mm
23:23 -12 °C -16.8 °C 34462.7 hPa WSW 12.7 km/h 12.7 km/h 55 % 0 mm
23:28 -12.1 °C -16.8 °C 34462.7 hPa WSW 17.9 km/h 17.9 km/h 55 % 0 mm
23:30 -13.6 °C -17.4 °C 34428.8 hPa WSW 15.6 km/h 15.6 km/h 62 % 0 mm
23:33 -12.1 °C -16.8 °C 34462.7 hPa West 15 km/h 15 km/h 56 % 0 mm
23:38 -12.2 °C -16.8 °C 34462.7 hPa WSW 15 km/h 15 km/h 56 % 0 mm
23:40 -13.7 °C -17.5 °C 34428.8 hPa WSW 7.7 km/h 10.3 km/h 62 % 0 mm
23:43 -12.2 °C -16.7 °C 34462.7 hPa SW 15 km/h 15 km/h 57 % 0 mm
23:48 -12.3 °C -16.8 °C 34462.7 hPa WNW 11.9 km/h 11.9 km/h 57 % 0 mm
23:50 -13.7 °C -17.4 °C 34428.8 hPa West 12.9 km/h 15.6 km/h 62 % 0 mm
23:53 -12.3 °C -16.8 °C 34428.8 hPa WSW 15 km/h 15 km/h 57 % 0 mm
23:58 -12.3 °C -16.7 °C 34428.8 hPa WSW 11.9 km/h 11.9 km/h 58 % 0 mm
Meteo Sesrovires
Elogis d' Weather Underground - 1.75 mb

Guio original per  Jim McMurry - jmcmurry@mwt.net Adaptat per a la plantilla per  Wim van der Kuil - Leuven-Template.eu

Trobareu la nostra informacio del temps tambe a:

Weather Underground

AWEKAS